Terminal Aerodrome Forecast
Issued by NWS

Home | Current Version | Previous Version | Text Only | Print | Product List | Glossary Off
Versions: 1 2 3 4 5 6 7 8 9 10 11 12 13 14 15 16 17

768
FTUS41 KCLE 230531
TAFFDY
TAF
KFDY 230531Z 2306/2406 27004KT P6SM FEW060 FEW200
     FM230900 VRB03KT 4SM BR FEW026 SCT090
      TEMPO 2309/2311 2SM BR
     FM231400 VRB03KT P6SM SCT028 BKN035
      TEMPO 2314/2316 BKN028
     FM231600 27005KT P6SM SCT030 BKN040 PROB30 2318/2322 4SM TS
      BKN030CB
     FM240500 27005KT 5SM BR FEW045 FEW150=

USA.gov is the U.S. government's official web portal to all federal, state and local government web resources and services.